Impacts METAR Board
IDs:

KMIA - Miami Intl, FL, US

Updated at: 0300 UTC 20 Mar 2019
Potential Impact None Slight Moderate High
Time 19/15Z 19/16Z 19/17Z 19/18Z 19/19Z 19/20Z 19/21Z 19/22Z 19/23Z 20/00Z 20/01Z 20/02Z 20/03Z
Temp65 66 67 67 68 69 69 70 69 69 68 66 64
Dewpt64 66 67 67 66 68 66 66 66 67 66 66 64
Altim30.08 30.09 30.08 30.04 29.98 29.99 29.99 29.98 29.98 29.99 30.01 30.04 30.04
VIS10 3 10 6 7 10 10 10 10 10 6 6 6
CIG45 5 85 60 80 13 30 100 35 32 23 6 6
CoverOVCOVCOVCOVCOVCOVCOVCOVCOVCOVCOVCOVCOVC
FltCatVFRIFRVFRVFRVFRMVFRMVFRVFRVFRVFRMVFRIFRIFR
WX--+RA BR-RA-RA BR-RA---RA-------RA BR-RA BR-RA BR
WDir2020403070403040500340340340
WSpd7 3 6 7 9 6 6 9 8 0 3 7 5
WGst-- -- -- -- 19 -- -- -- -- -- -- -- --
Raw hourly METARs
KMIA 191453Z 02007KT 330V050 10SM FEW006 BKN045 OVC085 18/18 A3008 RMK AO2 RAE50 SLP185 P0010 60042 T01830178 51025
KMIA 191553Z 02003KT 3SM R09/5500VP6000FT +RA BR BKN005 BKN060 OVC095 19/19 A3009 RMK AO2 RAB1454 SLP190 P0018 T01890189
KMIA 191653Z 04006KT 10SM -RA SCT007 SCT065 OVC085 19/19 A3008 RMK AO2 SLP186 P0016 T01940194
KMIA 191753Z 03007KT 6SM -RA BR FEW007 BKN060 OVC100 19/19 A3004 RMK AO2 PRESFR SLP174 P0006 60082 T01940194 10200 20183 58011
KMIA 191853Z 07009G19KT 7SM -RA FEW009 BKN080 OVC100 20/19 A2998 RMK AO2 SLP151 P0005 T02000189
KMIA 191953Z 04006KT 10SM BKN013 OVC021 21/20 A2999 RMK AO2 RAE32 SLP156 P0000 T02060200
KMIA 192053Z 03006KT 10SM -RA FEW016 SCT025 OVC030 21/19 A2999 RMK AO2 RAB34 SLP154 P0000 60005 T02060189 56020
KMIA 192153Z 04009KT 10SM FEW014 SCT025 BKN100 OVC250 21/19 A2998 RMK AO2 RAE00 SLP154 P0000 T02110189
KMIA 192253Z 05008KT 10SM FEW015 SCT029 BKN035 OVC130 21/19 A2998 RMK AO2 SLP153 T02060189
KMIA 200005Z 00000KT 10SM SCT015 BKN032 OVC044 21/19 A2999 RMK AO2 RAE01 P0000 T02060194
KMIA 200053Z 34003KT 6SM -RA BR SCT015 OVC023 20/19 A3001 RMK AO2 RAE01B34 SLP164 P0000 T02000189
KMIA 200153Z 34007KT 6SM -RA BR BKN006 OVC011 19/19 A3004 RMK AO2 RAE0059B23 SLP171 P0001 T01890189
KMIA 200253Z 34005KT 6SM -RA BR BKN006 OVC011 18/18 A3004 RMK AO2 SLP174 P0004 60005 T01780178 51015



Page loaded:  03:52 UTC  |   08:52 PM Pacific  |   09:52 PM Mountain  |   10:52 PM Central  |   11:52 PM Eastern

 

ADVISORIES

FORECASTS

FORECASTS

OBSERVATIONS

USER TOOLS

ABOUT US